Tullahoma, Tennessee
Current Conditions -  °F | °C
As of 8:15 PM on Saturday 22 Nov 2014 (Local Time) from KTHA Reporting Station
Clear Clear  
Wind Chill: 54°   Ceiling: Unl
Heat Index: 54°   Visibility: 10mi
Dew Point: 32°   Wind: 8mph
Humidity: 44%   Direction: 160°SSE
Pressure: 30.15"   Gusts: NA
Location:  35.36°N, 86.21°W
Report Text: KTHA 230215Z AUTO 16007KT 10SM CLR 12/00 A3015 RMK
Loading
Personal Weather Stations






























Interactive Weather Map New forecast layout! Learn more

10-Day Weather Forecast

Advertisements
Track Severe Weather on mobile